Terminal Aerodrome Forecast
Issued by NWS Newport/Morehead City, NC

Home | Current Version | Previous Version | Text Only | Print | Product List | Glossary Off
Versions: 1 2 3 4 5 6 7 8 9 10 11 12 13 14 15 16 17 18 19

227
FTUS42 KMHX 300442 AAB
TAFEWN
TAF AMD
KEWN 300442Z 3005/3024 18006G30KT 1SM TSRA SCT030 BKN050CB
     FM300501 18006KT P6SM SCT035 BKN050
     FM300900 VRB04KT P6SM SCT025 OVC070
     FM301700 32006KT P6SM VCSH BKN080=

USA.gov is the U.S. government's official web portal to all federal, state and local government web resources and services.